sensor_id;sensor_type;location;lat;lon;timestamp;temperature;humidity
9393;DHT22;4736;52.508;13.422;2023-07-13T00:00:27;19.60;59.30
9393;DHT22;4736;52.508;13.422;2023-07-13T00:03:32;19.60;59.50
9393;DHT22;4736;52.508;13.422;2023-07-13T00:06:37;19.70;59.40
9393;DHT22;4736;52.508;13.422;2023-07-13T00:09:40;19.70;59.30
9393;DHT22;4736;52.508;13.422;2023-07-13T00:12:44;19.60;59.40
9393;DHT22;4736;52.508;13.422;2023-07-13T00:15:47;19.50;59.40
9393;DHT22;4736;52.508;13.422;2023-07-13T00:18:52;19.50;59.40
9393;DHT22;4736;52.508;13.422;2023-07-13T00:21:55;19.50;59.40
9393;DHT22;4736;52.508;13.422;2023-07-13T00:24:58;19.50;59.50
9393;DHT22;4736;52.508;13.422;2023-07-13T00:28:02;19.40;59.60
9393;DHT22;4736;52.508;13.422;2023-07-13T00:31:05;19.40;59.60
9393;DHT22;4736;52.508;13.422;2023-07-13T00:34:11;19.40;59.60
9393;DHT22;4736;52.508;13.422;2023-07-13T00:37:15;19.30;59.60
9393;DHT22;4736;52.508;13.422;2023-07-13T00:40:18;19.40;59.70
9393;DHT22;4736;52.508;13.422;2023-07-13T00:43:23;19.30;59.60
9393;DHT22;4736;52.508;13.422;2023-07-13T00:46:28;19.30;59.60
9393;DHT22;4736;52.508;13.422;2023-07-13T00:49:35;19.20;59.50
9393;DHT22;4736;52.508;13.422;2023-07-13T00:52:43;19.20;59.60
9393;DHT22;4736;52.508;13.422;2023-07-13T00:55:47;19.10;59.70
9393;DHT22;4736;52.508;13.422;2023-07-13T00:58:52;19.10;59.80
9393;DHT22;4736;52.508;13.422;2023-07-13T01:01:56;19.00;59.90
9393;DHT22;4736;52.508;13.422;2023-07-13T01:05:00;19.00;60.00
9393;DHT22;4736;52.508;13.422;2023-07-13T01:08:04;18.90;60.20
9393;DHT22;4736;52.508;13.422;2023-07-13T01:11:08;18.80;60.50
9393;DHT22;4736;52.508;13.422;2023-07-13T01:14:11;18.80;60.80
9393;DHT22;4736;52.508;13.422;2023-07-13T01:17:15;18.70;61.00
9393;DHT22;4736;52.508;13.422;2023-07-13T01:20:19;18.70;61.10
9393;DHT22;4736;52.508;13.422;2023-07-13T01:23:25;18.60;61.20
9393;DHT22;4736;52.508;13.422;2023-07-13T01:26:28;18.50;61.60
9393;DHT22;4736;52.508;13.422;2023-07-13T01:29:32;18.40;61.70
9393;DHT22;4736;52.508;13.422;2023-07-13T01:32:36;18.40;61.90
9393;DHT22;4736;52.508;13.422;2023-07-13T01:35:39;18.40;62.00
9393;DHT22;4736;52.508;13.422;2023-07-13T01:38:44;18.30;62.10
9393;DHT22;4736;52.508;13.422;2023-07-13T01:41:48;18.30;62.00
9393;DHT22;4736;52.508;13.422;2023-07-13T01:44:52;18.30;62.20
9393;DHT22;4736;52.508;13.422;2023-07-13T01:47:55;18.20;62.20
9393;DHT22;4736;52.508;13.422;2023-07-13T01:50:58;18.20;62.20
9393;DHT22;4736;52.508;13.422;2023-07-13T01:54:03;18.10;62.30
9393;DHT22;4736;52.508;13.422;2023-07-13T01:57:06;18.10;62.40
9393;DHT22;4736;52.508;13.422;2023-07-13T02:00:11;18.00;62.60
9393;DHT22;4736;52.508;13.422;2023-07-13T02:03:16;18.00;62.90
9393;DHT22;4736;52.508;13.422;2023-07-13T02:06:20;18.00;63.60
9393;DHT22;4736;52.508;13.422;2023-07-13T02:09:24;18.00;63.40
9393;DHT22;4736;52.508;13.422;2023-07-13T02:12:27;18.00;63.70
9393;DHT22;4736;52.508;13.422;2023-07-13T02:15:31;18.00;63.80
9393;DHT22;4736;52.508;13.422;2023-07-13T02:18:36;18.00;63.70
9393;DHT22;4736;52.508;13.422;2023-07-13T02:21:39;18.00;63.70
9393;DHT22;4736;52.508;13.422;2023-07-13T02:24:43;18.10;63.80
9393;DHT22;4736;52.508;13.422;2023-07-13T02:27:46;18.10;63.80
9393;DHT22;4736;52.508;13.422;2023-07-13T02:30:49;18.10;63.90
9393;DHT22;4736;52.508;13.422;2023-07-13T02:33:54;18.10;63.70
9393;DHT22;4736;52.508;13.422;2023-07-13T02:36:58;18.10;63.30
9393;DHT22;4736;52.508;13.422;2023-07-13T02:40:03;18.10;63.20
9393;DHT22;4736;52.508;13.422;2023-07-13T02:43:10;18.00;63.00
9393;DHT22;4736;52.508;13.422;2023-07-13T02:46:13;18.00;63.10
9393;DHT22;4736;52.508;13.422;2023-07-13T02:49:18;18.00;63.40
9393;DHT22;4736;52.508;13.422;2023-07-13T02:52:21;17.90;63.60
9393;DHT22;4736;52.508;13.422;2023-07-13T02:55:25;17.90;63.70
9393;DHT22;4736;52.508;13.422;2023-07-13T02:58:28;17.80;64.00
9393;DHT22;4736;52.508;13.422;2023-07-13T03:01:31;17.80;64.20
9393;DHT22;4736;52.508;13.422;2023-07-13T03:04:37;17.80;64.30
9393;DHT22;4736;52.508;13.422;2023-07-13T03:07:41;17.80;64.70
9393;DHT22;4736;52.508;13.422;2023-07-13T03:10:45;17.80;64.70
9393;DHT22;4736;52.508;13.422;2023-07-13T03:13:48;17.80;64.70
9393;DHT22;4736;52.508;13.422;2023-07-13T03:16:52;17.80;64.60
9393;DHT22;4736;52.508;13.422;2023-07-13T03:19:55;17.80;64.40
9393;DHT22;4736;52.508;13.422;2023-07-13T03:22:58;17.80;64.20
9393;DHT22;4736;52.508;13.422;2023-07-13T03:26:05;17.80;64.10
9393;DHT22;4736;52.508;13.422;2023-07-13T03:29:09;17.80;64.30
9393;DHT22;4736;52.508;13.422;2023-07-13T03:32:12;17.80;64.40
9393;DHT22;4736;52.508;13.422;2023-07-13T03:35:15;17.90;64.20
9393;DHT22;4736;52.508;13.422;2023-07-13T03:38:18;18.00;64.00
9393;DHT22;4736;52.508;13.422;2023-07-13T03:41:23;18.00;64.00
9393;DHT22;4736;52.508;13.422;2023-07-13T03:44:27;18.10;64.00
9393;DHT22;4736;52.508;13.422;2023-07-13T03:47:30;18.10;63.80
9393;DHT22;4736;52.508;13.422;2023-07-13T03:50:33;18.20;63.60
9393;DHT22;4736;52.508;13.422;2023-07-13T03:53:39;18.20;63.60
9393;DHT22;4736;52.508;13.422;2023-07-13T03:56:44;18.30;63.70
9393;DHT22;4736;52.508;13.422;2023-07-13T03:59:47;18.30;63.60
9393;DHT22;4736;52.508;13.422;2023-07-13T04:02:50;18.30;63.40
9393;DHT22;4736;52.508;13.422;2023-07-13T04:05:54;18.30;63.50
9393;DHT22;4736;52.508;13.422;2023-07-13T04:09:02;18.30;63.40
9393;DHT22;4736;52.508;13.422;2023-07-13T04:12:09;18.30;63.40
9393;DHT22;4736;52.508;13.422;2023-07-13T04:15:12;18.30;63.20
9393;DHT22;4736;52.508;13.422;2023-07-13T04:18:15;18.30;63.20
9393;DHT22;4736;52.508;13.422;2023-07-13T04:21:19;18.30;63.30
9393;DHT22;4736;52.508;13.422;2023-07-13T04:24:22;18.30;63.30
9393;DHT22;4736;52.508;13.422;2023-07-13T04:27:26;18.30;63.30
9393;DHT22;4736;52.508;13.422;2023-07-13T04:30:30;18.30;63.60
9393;DHT22;4736;52.508;13.422;2023-07-13T04:33:34;18.30;63.60
9393;DHT22;4736;52.508;13.422;2023-07-13T04:36:37;18.30;63.50
9393;DHT22;4736;52.508;13.422;2023-07-13T04:39:40;18.40;63.50
9393;DHT22;4736;52.508;13.422;2023-07-13T04:42:44;18.40;63.40
9393;DHT22;4736;52.508;13.422;2023-07-13T04:45:48;18.40;63.40
9393;DHT22;4736;52.508;13.422;2023-07-13T04:48:51;18.40;63.40
9393;DHT22;4736;52.508;13.422;2023-07-13T04:51:55;18.50;63.20
9393;DHT22;4736;52.508;13.422;2023-07-13T04:54:59;18.60;63.20
9393;DHT22;4736;52.508;13.422;2023-07-13T04:58:04;18.70;63.10
9393;DHT22;4736;52.508;13.422;2023-07-13T05:01:09;18.70;63.20
9393;DHT22;4736;52.508;13.422;2023-07-13T05:04:12;18.90;63.10
9393;DHT22;4736;52.508;13.422;2023-07-13T05:07:16;19.00;62.90
9393;DHT22;4736;52.508;13.422;2023-07-13T05:10:19;19.20;62.50
9393;DHT22;4736;52.508;13.422;2023-07-13T05:13:24;19.40;61.90
9393;DHT22;4736;52.508;13.422;2023-07-13T05:16:31;19.30;61.80
9393;DHT22;4736;52.508;13.422;2023-07-13T05:19:34;19.40;61.90
9393;DHT22;4736;52.508;13.422;2023-07-13T05:22:38;19.80;61.50
9393;DHT22;4736;52.508;13.422;2023-07-13T05:25:41;20.00;60.90
9393;DHT22;4736;52.508;13.422;2023-07-13T05:28:46;20.30;60.10
9393;DHT22;4736;52.508;13.422;2023-07-13T05:31:49;20.30;59.70
9393;DHT22;4736;52.508;13.422;2023-07-13T05:34:53;20.60;59.40
9393;DHT22;4736;52.508;13.422;2023-07-13T05:37:56;20.90;59.20
9393;DHT22;4736;52.508;13.422;2023-07-13T05:40:59;21.10;58.50
9393;DHT22;4736;52.508;13.422;2023-07-13T05:44:08;21.30;58.10
9393;DHT22;4736;52.508;13.422;2023-07-13T05:47:11;21.40;57.90
9393;DHT22;4736;52.508;13.422;2023-07-13T05:50:16;21.50;57.10
9393;DHT22;4736;52.508;13.422;2023-07-13T05:53:19;21.70;57.40
9393;DHT22;4736;52.508;13.422;2023-07-13T05:56:22;21.70;57.30
9393;DHT22;4736;52.508;13.422;2023-07-13T05:59:28;21.80;57.20
9393;DHT22;4736;52.508;13.422;2023-07-13T06:02:34;21.70;57.30
9393;DHT22;4736;52.508;13.422;2023-07-13T06:05:38;21.90;57.00
9393;DHT22;4736;52.508;13.422;2023-07-13T06:08:41;21.50;57.50
9393;DHT22;4736;52.508;13.422;2023-07-13T06:11:45;21.80;57.40
9393;DHT22;4736;52.508;13.422;2023-07-13T06:14:49;22.10;57.00
9393;DHT22;4736;52.508;13.422;2023-07-13T06:17:52;22.60;55.70
9393;DHT22;4736;52.508;13.422;2023-07-13T06:20:55;22.70;55.20
9393;DHT22;4736;52.508;13.422;2023-07-13T06:23:58;22.60;56.10
9393;DHT22;4736;52.508;13.422;2023-07-13T06:27:02;22.50;55.80
9393;DHT22;4736;52.508;13.422;2023-07-13T06:30:07;23.10;55.60
9393;DHT22;4736;52.508;13.422;2023-07-13T06:33:11;23.40;54.70
9393;DHT22;4736;52.508;13.422;2023-07-13T06:36:15;23.40;54.00
9393;DHT22;4736;52.508;13.422;2023-07-13T06:39:18;23.20;54.30
9393;DHT22;4736;52.508;13.422;2023-07-13T06:42:21;23.30;54.50
9393;DHT22;4736;52.508;13.422;2023-07-13T06:45:25;23.20;55.00
9393;DHT22;4736;52.508;13.422;2023-07-13T06:48:28;23.60;54.00
9393;DHT22;4736;52.508;13.422;2023-07-13T06:51:32;23.70;53.50
9393;DHT22;4736;52.508;13.422;2023-07-13T06:54:35;23.60;53.80
9393;DHT22;4736;52.508;13.422;2023-07-13T06:57:38;23.60;53.70
9393;DHT22;4736;52.508;13.422;2023-07-13T07:00:43;24.20;52.90
9393;DHT22;4736;52.508;13.422;2023-07-13T07:03:46;24.50;52.00
9393;DHT22;4736;52.508;13.422;2023-07-13T07:06:50;25.00;51.60
9393;DHT22;4736;52.508;13.422;2023-07-13T07:09:53;24.80;51.80
9393;DHT22;4736;52.508;13.422;2023-07-13T07:12:56;25.10;50.90
9393;DHT22;4736;52.508;13.422;2023-07-13T07:16:01;25.20;50.50
9393;DHT22;4736;52.508;13.422;2023-07-13T07:19:04;25.30;49.80
9393;DHT22;4736;52.508;13.422;2023-07-13T07:22:07;24.90;51.00
9393;DHT22;4736;52.508;13.422;2023-07-13T07:25:11;24.70;52.40
9393;DHT22;4736;52.508;13.422;2023-07-13T07:28:15;24.60;51.90
9393;DHT22;4736;52.508;13.422;2023-07-13T07:31:24;24.40;50.80
9393;DHT22;4736;52.508;13.422;2023-07-13T07:34:30;24.10;51.20
9393;DHT22;4736;52.508;13.422;2023-07-13T07:37:36;23.80;52.20
9393;DHT22;4736;52.508;13.422;2023-07-13T07:40:42;23.80;52.70
9393;DHT22;4736;52.508;13.422;2023-07-13T07:43:48;23.90;52.00
9393;DHT22;4736;52.508;13.422;2023-07-13T07:46:53;24.20;51.40
9393;DHT22;4736;52.508;13.422;2023-07-13T07:49:57;24.30;51.40
9393;DHT22;4736;52.508;13.422;2023-07-13T07:53:00;24.40;51.00
9393;DHT22;4736;52.508;13.422;2023-07-13T07:56:04;24.20;51.10
9393;DHT22;4736;52.508;13.422;2023-07-13T07:59:27;23.90;51.70
9393;DHT22;4736;52.508;13.422;2023-07-13T08:02:52;24.10;51.90
9393;DHT22;4736;52.508;13.422;2023-07-13T08:05:58;23.70;51.50
9393;DHT22;4736;52.508;13.422;2023-07-13T08:09:21;23.60;51.90
9393;DHT22;4736;52.508;13.422;2023-07-13T08:12:24;23.20;52.50
9393;DHT22;4736;52.508;13.422;2023-07-13T08:15:30;23.30;52.50
9393;DHT22;4736;52.508;13.422;2023-07-13T08:18:34;23.60;52.10
9393;DHT22;4736;52.508;13.422;2023-07-13T08:21:37;23.70;51.80
9393;DHT22;4736;52.508;13.422;2023-07-13T08:24:41;23.70;50.90
9393;DHT22;4736;52.508;13.422;2023-07-13T08:27:45;23.60;50.90
9393;DHT22;4736;52.508;13.422;2023-07-13T08:30:48;23.30;52.00
9393;DHT22;4736;52.508;13.422;2023-07-13T08:33:52;23.40;51.90
9393;DHT22;4736;52.508;13.422;2023-07-13T08:36:56;23.50;51.10
9393;DHT22;4736;52.508;13.422;2023-07-13T08:39:59;23.60;51.10
9393;DHT22;4736;52.508;13.422;2023-07-13T08:43:02;23.60;51.00
9393;DHT22;4736;52.508;13.422;2023-07-13T08:46:09;23.30;51.50
9393;DHT22;4736;52.508;13.422;2023-07-13T08:49:19;22.60;53.40
9393;DHT22;4736;52.508;13.422;2023-07-13T08:52:30;22.50;53.50
9393;DHT22;4736;52.508;13.422;2023-07-13T08:55:36;22.70;53.10
9393;DHT22;4736;52.508;13.422;2023-07-13T08:58:41;22.30;53.30
9393;DHT22;4736;52.508;13.422;2023-07-13T09:01:59;22.40;53.60
9393;DHT22;4736;52.508;13.422;2023-07-13T09:05:10;22.50;53.40
9393;DHT22;4736;52.508;13.422;2023-07-13T09:08:29;22.70;53.00
9393;DHT22;4736;52.508;13.422;2023-07-13T09:11:46;23.00;52.10
9393;DHT22;4736;52.508;13.422;2023-07-13T09:14:54;23.20;52.10
9393;DHT22;4736;52.508;13.422;2023-07-13T09:18:02;23.20;51.60
9393;DHT22;4736;52.508;13.422;2023-07-13T09:21:13;23.30;51.70
9393;DHT22;4736;52.508;13.422;2023-07-13T09:24:28;23.20;50.80
9393;DHT22;4736;52.508;13.422;2023-07-13T09:27:36;23.20;51.40
9393;DHT22;4736;52.508;13.422;2023-07-13T09:30:48;23.20;51.10
9393;DHT22;4736;52.508;13.422;2023-07-13T09:33:53;23.20;50.70
9393;DHT22;4736;52.508;13.422;2023-07-13T09:36:57;23.60;50.80
9393;DHT22;4736;52.508;13.422;2023-07-13T09:40:02;23.80;51.10
9393;DHT22;4736;52.508;13.422;2023-07-13T09:43:10;24.20;50.50
9393;DHT22;4736;52.508;13.422;2023-07-13T09:46:21;24.20;48.50
9393;DHT22;4736;52.508;13.422;2023-07-13T09:49:25;24.10;47.90
9393;DHT22;4736;52.508;13.422;2023-07-13T09:52:40;24.20;47.50
9393;DHT22;4736;52.508;13.422;2023-07-13T09:55:45;24.30;48.70
9393;DHT22;4736;52.508;13.422;2023-07-13T09:58:55;24.50;47.20
9393;DHT22;4736;52.508;13.422;2023-07-13T10:01:59;24.30;46.90
9393;DHT22;4736;52.508;13.422;2023-07-13T10:05:06;24.20;47.20
9393;DHT22;4736;52.508;13.422;2023-07-13T10:08:35;24.20;47.40
9393;DHT22;4736;52.508;13.422;2023-07-13T10:11:39;24.10;47.30
9393;DHT22;4736;52.508;13.422;2023-07-13T10:14:43;23.50;48.70
9393;DHT22;4736;52.508;13.422;2023-07-13T10:17:47;23.60;49.00
9393;DHT22;4736;52.508;13.422;2023-07-13T10:20:51;23.90;48.80
9393;DHT22;4736;52.508;13.422;2023-07-13T10:24:19;24.20;49.40
9393;DHT22;4736;52.508;13.422;2023-07-13T10:27:29;24.50;48.00
9393;DHT22;4736;52.508;13.422;2023-07-13T10:30:39;24.50;47.90
9393;DHT22;4736;52.508;13.422;2023-07-13T10:33:43;24.60;47.90
9393;DHT22;4736;52.508;13.422;2023-07-13T10:36:48;24.20;47.40
9393;DHT22;4736;52.508;13.422;2023-07-13T10:39:54;24.00;47.60
9393;DHT22;4736;52.508;13.422;2023-07-13T10:43:01;23.90;47.50
9393;DHT22;4736;52.508;13.422;2023-07-13T10:46:10;24.00;47.50
9393;DHT22;4736;52.508;13.422;2023-07-13T10:49:14;23.80;47.60
9393;DHT22;4736;52.508;13.422;2023-07-13T10:52:40;24.00;47.60
9393;DHT22;4736;52.508;13.422;2023-07-13T10:55:56;24.10;49.10
9393;DHT22;4736;52.508;13.422;2023-07-13T10:59:11;24.50;47.30
9393;DHT22;4736;52.508;13.422;2023-07-13T11:02:25;24.70;46.80
9393;DHT22;4736;52.508;13.422;2023-07-13T11:05:32;25.00;45.70
9393;DHT22;4736;52.508;13.422;2023-07-13T11:08:38;25.30;46.50
9393;DHT22;4736;52.508;13.422;2023-07-13T11:11:42;25.40;45.70
9393;DHT22;4736;52.508;13.422;2023-07-13T11:15:03;25.40;44.40
9393;DHT22;4736;52.508;13.422;2023-07-13T11:18:20;25.20;44.30
9393;DHT22;4736;52.508;13.422;2023-07-13T11:21:27;25.00;45.30
9393;DHT22;4736;52.508;13.422;2023-07-13T11:24:49;25.20;45.00
9393;DHT22;4736;52.508;13.422;2023-07-13T11:28:13;25.10;44.70
9393;DHT22;4736;52.508;13.422;2023-07-13T11:31:20;25.30;44.60
9393;DHT22;4736;52.508;13.422;2023-07-13T11:34:28;25.40;44.00
9393;DHT22;4736;52.508;13.422;2023-07-13T11:37:33;25.60;44.90
9393;DHT22;4736;52.508;13.422;2023-07-13T11:40:36;25.60;44.50
9393;DHT22;4736;52.508;13.422;2023-07-13T11:43:43;25.50;44.80
9393;DHT22;4736;52.508;13.422;2023-07-13T11:46:48;25.60;44.80
9393;DHT22;4736;52.508;13.422;2023-07-13T11:49:56;25.30;44.90
9393;DHT22;4736;52.508;13.422;2023-07-13T11:52:59;25.20;45.20
9393;DHT22;4736;52.508;13.422;2023-07-13T11:56:03;25.20;45.50
9393;DHT22;4736;52.508;13.422;2023-07-13T11:59:12;24.90;45.80
9393;DHT22;4736;52.508;13.422;2023-07-13T12:02:21;25.00;45.30
9393;DHT22;4736;52.508;13.422;2023-07-13T12:05:28;25.10;44.00
9393;DHT22;4736;52.508;13.422;2023-07-13T12:08:38;25.20;43.60
9393;DHT22;4736;52.508;13.422;2023-07-13T12:11:43;25.00;44.50
9393;DHT22;4736;52.508;13.422;2023-07-13T12:14:51;25.20;44.30
9393;DHT22;4736;52.508;13.422;2023-07-13T12:17:54;25.30;45.00
9393;DHT22;4736;52.508;13.422;2023-07-13T12:20:59;25.50;44.60
9393;DHT22;4736;52.508;13.422;2023-07-13T12:24:03;25.80;44.40
9393;DHT22;4736;52.508;13.422;2023-07-13T12:27:19;25.90;44.40
9393;DHT22;4736;52.508;13.422;2023-07-13T12:30:28;25.90;44.50
9393;DHT22;4736;52.508;13.422;2023-07-13T12:33:33;25.80;44.80
9393;DHT22;4736;52.508;13.422;2023-07-13T12:36:46;25.80;44.50
9393;DHT22;4736;52.508;13.422;2023-07-13T12:39:51;25.90;43.60
9393;DHT22;4736;52.508;13.422;2023-07-13T12:42:54;25.60;43.90
9393;DHT22;4736;52.508;13.422;2023-07-13T12:46:02;25.80;43.10
9393;DHT22;4736;52.508;13.422;2023-07-13T12:49:07;25.50;44.50
9393;DHT22;4736;52.508;13.422;2023-07-13T12:52:22;25.40;44.60
9393;DHT22;4736;52.508;13.422;2023-07-13T12:55:27;25.50;44.30
9393;DHT22;4736;52.508;13.422;2023-07-13T12:58:37;25.90;44.30
9393;DHT22;4736;52.508;13.422;2023-07-13T13:01:42;25.70;43.30
9393;DHT22;4736;52.508;13.422;2023-07-13T13:04:46;25.60;44.40
9393;DHT22;4736;52.508;13.422;2023-07-13T13:07:51;26.00;44.00
9393;DHT22;4736;52.508;13.422;2023-07-13T13:10:54;26.00;43.10
9393;DHT22;4736;52.508;13.422;2023-07-13T13:13:57;25.60;43.60
9393;DHT22;4736;52.508;13.422;2023-07-13T13:17:02;25.60;43.90
9393;DHT22;4736;52.508;13.422;2023-07-13T13:20:14;25.50;44.10
9393;DHT22;4736;52.508;13.422;2023-07-13T13:23:20;25.40;44.50
9393;DHT22;4736;52.508;13.422;2023-07-13T13:26:24;25.50;44.30
9393;DHT22;4736;52.508;13.422;2023-07-13T13:29:28;25.60;43.70
9393;DHT22;4736;52.508;13.422;2023-07-13T13:32:35;25.60;44.10
9393;DHT22;4736;52.508;13.422;2023-07-13T13:35:39;25.60;44.50
9393;DHT22;4736;52.508;13.422;2023-07-13T13:38:43;25.20;45.00
9393;DHT22;4736;52.508;13.422;2023-07-13T13:41:47;25.40;44.60
9393;DHT22;4736;52.508;13.422;2023-07-13T13:44:50;25.50;44.50
9393;DHT22;4736;52.508;13.422;2023-07-13T13:47:55;25.70;43.90
9393;DHT22;4736;52.508;13.422;2023-07-13T13:50:59;25.80;43.60
9393;DHT22;4736;52.508;13.422;2023-07-13T13:54:03;26.00;44.40
9393;DHT22;4736;52.508;13.422;2023-07-13T13:57:07;26.20;43.10
9393;DHT22;4736;52.508;13.422;2023-07-13T14:00:11;26.10;43.90
9393;DHT22;4736;52.508;13.422;2023-07-13T14:03:20;26.40;43.70
9393;DHT22;4736;52.508;13.422;2023-07-13T14:06:23;26.40;42.90
9393;DHT22;4736;52.508;13.422;2023-07-13T14:09:26;26.30;43.20
9393;DHT22;4736;52.508;13.422;2023-07-13T14:12:30;26.20;43.00
9393;DHT22;4736;52.508;13.422;2023-07-13T14:15:33;26.00;42.80
9393;DHT22;4736;52.508;13.422;2023-07-13T14:18:38;26.10;43.50
9393;DHT22;4736;52.508;13.422;2023-07-13T14:21:41;26.10;43.20
9393;DHT22;4736;52.508;13.422;2023-07-13T14:24:44;26.10;42.90
9393;DHT22;4736;52.508;13.422;2023-07-13T14:27:51;26.00;42.90
9393;DHT22;4736;52.508;13.422;2023-07-13T14:30:57;25.80;44.00
9393;DHT22;4736;52.508;13.422;2023-07-13T14:34:02;25.90;44.00
9393;DHT22;4736;52.508;13.422;2023-07-13T14:37:05;25.80;44.20
9393;DHT22;4736;52.508;13.422;2023-07-13T14:40:13;25.90;44.10
9393;DHT22;4736;52.508;13.422;2023-07-13T14:43:17;25.90;44.30
9393;DHT22;4736;52.508;13.422;2023-07-13T14:46:27;26.00;43.50
9393;DHT22;4736;52.508;13.422;2023-07-13T14:49:35;26.00;44.30
9393;DHT22;4736;52.508;13.422;2023-07-13T14:52:38;25.80;44.20
9393;DHT22;4736;52.508;13.422;2023-07-13T14:55:41;25.80;43.50
9393;DHT22;4736;52.508;13.422;2023-07-13T14:58:45;25.70;43.70
9393;DHT22;4736;52.508;13.422;2023-07-13T15:01:49;25.70;44.20
9393;DHT22;4736;52.508;13.422;2023-07-13T15:04:56;26.00;43.70
9393;DHT22;4736;52.508;13.422;2023-07-13T15:08:01;26.00;43.70
9393;DHT22;4736;52.508;13.422;2023-07-13T15:11:04;26.20;43.40
9393;DHT22;4736;52.508;13.422;2023-07-13T15:14:07;26.00;43.30
9393;DHT22;4736;52.508;13.422;2023-07-13T15:17:27;25.80;43.50
9393;DHT22;4736;52.508;13.422;2023-07-13T15:20:33;25.80;43.30
9393;DHT22;4736;52.508;13.422;2023-07-13T15:23:38;25.80;43.30
9393;DHT22;4736;52.508;13.422;2023-07-13T15:26:41;25.90;42.50
9393;DHT22;4736;52.508;13.422;2023-07-13T15:29:49;25.80;41.90
9393;DHT22;4736;52.508;13.422;2023-07-13T15:32:53;25.70;42.00
9393;DHT22;4736;52.508;13.422;2023-07-13T15:35:58;25.90;42.30
9393;DHT22;4736;52.508;13.422;2023-07-13T15:39:01;25.80;42.00
9393;DHT22;4736;52.508;13.422;2023-07-13T15:42:04;25.70;42.70
9393;DHT22;4736;52.508;13.422;2023-07-13T15:45:16;25.70;43.20
9393;DHT22;4736;52.508;13.422;2023-07-13T15:48:21;25.60;43.40
9393;DHT22;4736;52.508;13.422;2023-07-13T15:51:28;25.50;43.20
9393;DHT22;4736;52.508;13.422;2023-07-13T15:54:32;25.40;43.20
9393;DHT22;4736;52.508;13.422;2023-07-13T15:57:35;25.20;43.40
9393;DHT22;4736;52.508;13.422;2023-07-13T16:00:40;25.10;43.80
9393;DHT22;4736;52.508;13.422;2023-07-13T16:03:44;25.20;44.00
9393;DHT22;4736;52.508;13.422;2023-07-13T16:06:49;24.80;44.20
9393;DHT22;4736;52.508;13.422;2023-07-13T16:09:52;25.00;44.60
9393;DHT22;4736;52.508;13.422;2023-07-13T16:12:55;25.20;44.00
9393;DHT22;4736;52.508;13.422;2023-07-13T16:15:58;25.50;43.70
9393;DHT22;4736;52.508;13.422;2023-07-13T16:19:04;25.40;43.70
9393;DHT22;4736;52.508;13.422;2023-07-13T16:22:14;25.60;44.40
9393;DHT22;4736;52.508;13.422;2023-07-13T16:25:20;25.30;43.40
9393;DHT22;4736;52.508;13.422;2023-07-13T16:28:25;25.20;43.80
9393;DHT22;4736;52.508;13.422;2023-07-13T16:31:31;25.00;43.70
9393;DHT22;4736;52.508;13.422;2023-07-13T16:34:36;25.00;43.70
9393;DHT22;4736;52.508;13.422;2023-07-13T16:37:43;25.00;43.70
9393;DHT22;4736;52.508;13.422;2023-07-13T16:41:03;25.00;43.70
9393;DHT22;4736;52.508;13.422;2023-07-13T16:44:18;25.00;43.60
9393;DHT22;4736;52.508;13.422;2023-07-13T16:47:22;24.90;43.40
9393;DHT22;4736;52.508;13.422;2023-07-13T16:50:30;24.80;43.40
9393;DHT22;4736;52.508;13.422;2023-07-13T16:53:35;24.70;43.80
9393;DHT22;4736;52.508;13.422;2023-07-13T16:56:38;24.40;43.70
9393;DHT22;4736;52.508;13.422;2023-07-13T16:59:43;24.40;44.00
9393;DHT22;4736;52.508;13.422;2023-07-13T17:02:47;24.30;44.40
9393;DHT22;4736;52.508;13.422;2023-07-13T17:05:53;24.20;44.80
9393;DHT22;4736;52.508;13.422;2023-07-13T17:08:58;24.20;44.60
9393;DHT22;4736;52.508;13.422;2023-07-13T17:12:04;24.10;44.70
9393;DHT22;4736;52.508;13.422;2023-07-13T17:15:11;23.80;47.90
9393;DHT22;4736;52.508;13.422;2023-07-13T17:18:14;23.20;50.30
9393;DHT22;4736;52.508;13.422;2023-07-13T17:21:18;22.50;53.10
9393;DHT22;4736;52.508;13.422;2023-07-13T17:24:25;21.70;55.40
9393;DHT22;4736;52.508;13.422;2023-07-13T17:27:28;21.00;58.10
9393;DHT22;4736;52.508;13.422;2023-07-13T17:30:31;20.60;59.10
9393;DHT22;4736;52.508;13.422;2023-07-13T17:33:36;20.40;59.50
9393;DHT22;4736;52.508;13.422;2023-07-13T17:36:41;20.10;59.60
9393;DHT22;4736;52.508;13.422;2023-07-13T17:39:45;20.00;59.80
9393;DHT22;4736;52.508;13.422;2023-07-13T17:42:50;19.90;60.20
9393;DHT22;4736;52.508;13.422;2023-07-13T17:45:57;19.70;60.30
9393;DHT22;4736;52.508;13.422;2023-07-13T17:49:01;19.70;60.50
9393;DHT22;4736;52.508;13.422;2023-07-13T17:52:08;19.50;60.30
9393;DHT22;4736;52.508;13.422;2023-07-13T17:55:15;19.50;60.40
9393;DHT22;4736;52.508;13.422;2023-07-13T17:58:19;19.50;60.90
9393;DHT22;4736;52.508;13.422;2023-07-13T18:01:24;19.40;60.70
9393;DHT22;4736;52.508;13.422;2023-07-13T18:04:28;19.30;60.90
9393;DHT22;4736;52.508;13.422;2023-07-13T18:07:31;19.20;61.20
9393;DHT22;4736;52.508;13.422;2023-07-13T18:10:36;19.20;61.70
9393;DHT22;4736;52.508;13.422;2023-07-13T18:13:41;19.20;61.60
9393;DHT22;4736;52.508;13.422;2023-07-13T18:16:50;19.30;61.60
9393;DHT22;4736;52.508;13.422;2023-07-13T18:19:55;19.30;61.40
9393;DHT22;4736;52.508;13.422;2023-07-13T18:22:59;19.30;61.50
9393;DHT22;4736;52.508;13.422;2023-07-13T18:26:04;19.40;61.50
9393;DHT22;4736;52.508;13.422;2023-07-13T18:29:13;19.40;61.30
9393;DHT22;4736;52.508;13.422;2023-07-13T18:32:18;19.40;60.80
9393;DHT22;4736;52.508;13.422;2023-07-13T18:35:27;19.40;60.70
9393;DHT22;4736;52.508;13.422;2023-07-13T18:38:31;19.40;60.70
9393;DHT22;4736;52.508;13.422;2023-07-13T18:41:36;19.30;60.80
9393;DHT22;4736;52.508;13.422;2023-07-13T18:44:40;19.30;60.80
9393;DHT22;4736;52.508;13.422;2023-07-13T18:47:46;19.30;60.80
9393;DHT22;4736;52.508;13.422;2023-07-13T18:50:51;19.20;60.50
9393;DHT22;4736;52.508;13.422;2023-07-13T18:53:55;19.30;60.60
9393;DHT22;4736;52.508;13.422;2023-07-13T18:57:03;19.20;60.40
9393;DHT22;4736;52.508;13.422;2023-07-13T19:00:11;19.20;60.40
9393;DHT22;4736;52.508;13.422;2023-07-13T19:03:16;19.20;60.50
9393;DHT22;4736;52.508;13.422;2023-07-13T19:06:20;19.10;60.00
9393;DHT22;4736;52.508;13.422;2023-07-13T19:09:24;19.00;60.10
9393;DHT22;4736;52.508;13.422;2023-07-13T19:12:30;19.10;60.20
9393;DHT22;4736;52.508;13.422;2023-07-13T19:15:35;19.00;60.30
9393;DHT22;4736;52.508;13.422;2023-07-13T19:18:40;19.00;60.00
9393;DHT22;4736;52.508;13.422;2023-07-13T19:21:44;19.00;60.10
9393;DHT22;4736;52.508;13.422;2023-07-13T19:24:48;19.00;60.30
9393;DHT22;4736;52.508;13.422;2023-07-13T19:27:58;18.90;60.50
9393;DHT22;4736;52.508;13.422;2023-07-13T19:31:02;19.00;60.40
9393;DHT22;4736;52.508;13.422;2023-07-13T19:34:16;18.90;60.20
9393;DHT22;4736;52.508;13.422;2023-07-13T19:37:21;18.80;60.30
9393;DHT22;4736;52.508;13.422;2023-07-13T19:40:27;18.80;60.30
9393;DHT22;4736;52.508;13.422;2023-07-13T19:43:32;18.80;60.70
9393;DHT22;4736;52.508;13.422;2023-07-13T19:46:38;18.80;60.60
9393;DHT22;4736;52.508;13.422;2023-07-13T19:49:41;18.80;60.60